Terminal Aerodrome Forecast
Issued by NWS

Home | Current Version | Previous Version | Text Only | Print | Product List | Glossary Off
Versions: 1 2 3 4 5 6 7 8 9 10 11 12 13 14 15 16 17 18 19 20 21

000
FTUS43 KICT 231134
TAFSLN
TAF
KSLN 231134Z 2312/2412 VRB05KT P6SM VCSH SCT100 BKN250
     FM231600 19015G22KT P6SM SCT250
     FM240000 16010KT P6SM SCT250=

USA.gov is the U.S. government's official web portal to all federal, state and local government web resources and services.